createdAt,value
2023-01-01T00:00:03.022Z,959.5334473
2023-01-01T00:01:03.806Z,959.5140381
2023-01-01T00:02:05.274Z,959.4381104
2023-01-01T00:03:06.034Z,959.4315796
2023-01-01T00:04:06.643Z,959.4504395
2023-01-01T00:05:07.341Z,959.5195313
2023-01-01T00:06:08.105Z,959.5387573
2023-01-01T00:07:39.341Z,959.5339355
2023-01-01T00:08:40.686Z,959.5595093
2023-01-01T00:09:41.431Z,959.5579834
2023-01-01T00:10:42.987Z,959.5925903
2023-01-01T00:11:43.698Z,959.6468506
2023-01-01T00:12:44.463Z,959.6160889
2023-01-01T00:13:45.239Z,959.6112671
2023-01-01T00:14:45.951Z,959.6166382
2023-01-01T00:15:46.726Z,959.6740723
2023-01-01T00:16:47.558Z,959.7001343
2023-01-01T00:17:48.213Z,959.6175537
2023-01-01T00:18:48.972Z,959.6451416
2023-01-01T00:19:50.491Z,959.6361084
2023-01-01T00:20:51.211Z,959.5670166
2023-01-01T00:21:52.004Z,959.5646973
2023-01-01T00:22:54.977Z,959.5586548
2023-01-01T00:23:53.479Z,959.5704956
2023-01-01T00:24:54.214Z,959.5918579
2023-01-01T00:25:54.945Z,959.6239624
2023-01-01T00:26:55.671Z,959.6056519
2023-01-01T00:27:56.430Z,959.5859375
2023-01-01T00:28:58.025Z,959.5873413
2023-01-01T00:29:59.513Z,959.5505981
2023-01-01T00:31:00.291Z,959.5577393
2023-01-01T00:32:01.150Z,959.5848389
2023-01-01T00:33:01.818Z,959.6779175
2023-01-01T00:34:03.600Z,959.6878052
2023-01-01T00:35:04.285Z,959.6123657
2023-01-01T00:36:05.083Z,959.5568237
2023-01-01T00:37:05.828Z,959.5328369
2023-01-01T00:38:06.576Z,959.5077515
2023-01-01T00:39:08.546Z,959.5326538
2023-01-01T00:40:40.693Z,959.5792236
2023-01-01T00:41:41.452Z,959.5018921
2023-01-01T00:42:42.198Z,959.4119263
2023-01-01T00:43:42.957Z,959.4639282
2023-01-01T00:44:43.708Z,959.3401489
2023-01-01T00:45:44.587Z,959.3776855
2023-01-01T00:46:45.321Z,959.4550171
2023-01-01T00:47:46.158Z,959.4036865
2023-01-01T00:48:46.953Z,959.3765869
2023-01-01T00:49:48.596Z,959.3883667
2023-01-01T00:50:49.290Z,959.4254761
2023-01-01T00:51:50.063Z,959.3850098
2023-01-01T00:52:50.774Z,959.4000854
2023-01-01T00:53:51.509Z,959.333252
2023-01-01T00:54:52.295Z,959.3607788
2023-01-01T00:55:53.034Z,959.3155518
2023-01-01T00:56:53.748Z,959.2224731
2023-01-01T00:57:54.501Z,959.3859863
2023-01-01T00:59:00.695Z,959.3494263
2023-01-01T00:59:57.666Z,959.1800537
2023-01-01T01:00:58.407Z,959.2382813
2023-01-01T01:01:59.362Z,959.3261108
2023-01-01T01:02:59.956Z,959.37677
2023-01-01T01:04:00.684Z,959.3551636
2023-01-01T01:05:01.633Z,959.3482056
2023-01-01T01:06:02.160Z,959.3742065
2023-01-01T01:07:02.921Z,959.4145508
2023-01-01T01:08:03.644Z,959.3757935
2023-01-01T01:09:04.362Z,959.3959351
2023-01-01T01:10:06.064Z,959.3322144
2023-01-01T01:11:06.767Z,959.3613892
2023-01-01T01:12:17.632Z,959.4012451
2023-01-01T01:13:38.675Z,959.4454956
2023-01-01T01:14:39.416Z,959.4277344
2023-01-01T01:15:40.179Z,959.5822144
2023-01-01T01:16:41.819Z,959.557373
2023-01-01T01:17:42.489Z,959.5109253
2023-01-01T01:18:43.240Z,959.4885254
2023-01-01T01:19:44.654Z,959.4983521
2023-01-01T01:20:45.431Z,959.5606079
2023-01-01T01:21:46.117Z,959.5061035
2023-01-01T01:22:47.535Z,959.5734863
2023-01-01T01:23:48.253Z,959.6187744
2023-01-01T01:24:48.951Z,959.5274048
2023-01-01T01:25:49.723Z,959.5758667
2023-01-01T01:26:50.405Z,959.5548706
2023-01-01T01:27:51.158Z,959.5186157
2023-01-01T01:28:51.971Z,959.5310669
2023-01-01T01:29:53.720Z,959.4824829
2023-01-01T01:30:54.543Z,959.5599976
2023-01-01T01:31:55.156Z,959.5518799
2023-01-01T01:32:56.127Z,959.6018677
2023-01-01T01:33:56.965Z,959.6550903
2023-01-01T01:34:57.829Z,959.6970215
2023-01-01T01:35:58.600Z,959.7073364
2023-01-01T01:36:59.317Z,959.6911011
2023-01-01T01:38:00.106Z,959.6690063
2023-01-01T01:39:00.951Z,959.7005615
2023-01-01T01:40:02.606Z,959.7093506
2023-01-01T01:41:04.212Z,959.6925049
2023-01-01T01:42:04.923Z,959.7608643
2023-01-01T01:43:05.767Z,959.7548218
2023-01-01T01:44:06.650Z,959.7463989
2023-01-01T01:45:07.961Z,959.6257324
2023-01-01T01:46:39.090Z,959.6755371
2023-01-01T01:47:39.838Z,959.6793823
2023-01-01T01:48:40.687Z,959.7067871
2023-01-01T01:49:42.232Z,959.7228394
2023-01-01T01:50:43.093Z,959.666748
2023-01-01T01:51:43.947Z,959.7133789
2023-01-01T01:52:44.706Z,959.7456055
2023-01-01T01:53:45.523Z,959.670105
2023-01-01T01:54:46.364Z,959.7706299
2023-01-01T01:55:47.213Z,959.7631226
2023-01-01T01:56:48.007Z,959.8079834
2023-01-01T01:57:48.681Z,959.8240356
2023-01-01T01:58:50.184Z,959.7890625
2023-01-01T01:59:51.726Z,959.708252
2023-01-01T02:00:52.564Z,959.7997437
2023-01-01T02:01:53.609Z,959.7619019
2023-01-01T02:02:54.192Z,959.8092041
2023-01-01T02:03:54.903Z,959.8175049
2023-01-01T02:04:55.759Z,959.7861938
2023-01-01T02:05:56.628Z,959.8290405
2023-01-01T02:06:57.838Z,959.8677979
2023-01-01T02:07:58.460Z,959.909668
2023-01-01T02:09:00.139Z,959.9514771
2023-01-01T02:10:01.709Z,959.8820801
2023-01-01T02:11:02.511Z,959.8178711
2023-01-01T02:12:03.414Z,959.8162231
2023-01-01T02:13:04.185Z,959.7409668
2023-01-01T02:14:04.918Z,959.710144
2023-01-01T02:15:05.747Z,959.6898193
2023-01-01T02:16:06.653Z,959.7807617
2023-01-01T02:17:39.513Z,959.6793823
2023-01-01T02:18:39.000Z,959.6877441
2023-01-01T02:19:39.816Z,959.7290039
2023-01-01T02:20:41.569Z,959.7540894
2023-01-01T02:21:42.443Z,959.8098145
2023-01-01T02:22:43.286Z,959.7641602
2023-01-01T02:23:45.169Z,959.7304688
2023-01-01T02:24:45.900Z,959.7481079
2023-01-01T02:25:46.709Z,959.7833862
2023-01-01T02:26:47.545Z,959.7406006
2023-01-01T02:27:48.502Z,959.7626343
2023-01-01T02:28:49.277Z,959.8387451
2023-01-01T02:29:50.087Z,959.8175659
2023-01-01T02:30:51.543Z,959.8190918
2023-01-01T02:31:52.387Z,959.8458862
2023-01-01T02:32:53.240Z,959.8414307
2023-01-01T02:33:54.068Z,959.7921753
2023-01-01T02:34:54.826Z,959.8447876
2023-01-01T02:35:55.576Z,959.7665405
2023-01-01T02:36:56.496Z,959.8337402
2023-01-01T02:37:57.617Z,959.8146973
2023-01-01T02:38:58.483Z,959.7941895
2023-01-01T02:40:00.055Z,959.8057861
2023-01-01T02:41:01.549Z,959.8087769
2023-01-01T02:42:02.416Z,959.7709961
2023-01-01T02:43:03.300Z,959.7575073
2023-01-01T02:45:05.141Z,959.8406372
2023-01-01T02:46:05.924Z,959.9291992
2023-01-01T02:47:07.100Z,959.887207
2023-01-01T02:48:38.354Z,959.8740845
2023-01-01T02:49:39.183Z,959.899353
2023-01-01T02:50:40.569Z,959.9115601
2023-01-01T02:51:41.322Z,959.920105
2023-01-01T02:52:42.121Z,959.9607544
2023-01-01T02:53:42.979Z,959.9484253
2023-01-01T02:54:43.902Z,959.9820557
2023-01-01T02:55:44.755Z,959.9894409
2023-01-01T02:56:45.503Z,959.9934082
2023-01-01T02:57:46.235Z,959.9837646
2023-01-01T02:58:47.206Z,960.0244751
2023-01-01T02:59:48.590Z,960.0072632
2023-01-01T03:00:50.129Z,959.9956055
2023-01-01T03:01:51.065Z,959.9956055
2023-01-01T03:02:51.982Z,960.0908813
2023-01-01T03:03:52.628Z,960.0021362
2023-01-01T03:04:53.498Z,960.0369263
2023-01-01T03:05:54.337Z,960.0944824
2023-01-01T03:06:55.179Z,959.9580688
2023-01-01T03:07:55.943Z,959.9271851
2023-01-01T03:08:56.641Z,959.9121704
2023-01-01T03:10:28.224Z,959.9870605
2023-01-01T03:11:59.511Z,960.038147
2023-01-01T03:13:00.297Z,960.0237427
2023-01-01T03:14:01.008Z,960.0053101
2023-01-01T03:15:01.824Z,960.0529785
2023-01-01T03:16:02.735Z,960.1279907
2023-01-01T03:17:03.499Z,960.0716553
2023-01-01T03:18:04.232Z,960.0814819
2023-01-01T03:19:05.004Z,960.0863037
2023-01-01T03:20:05.812Z,960.0164185
2023-01-01T03:21:38.083Z,960.0083008
2023-01-01T03:23:44.525Z,960.0476074
2023-01-01T03:24:40.568Z,960.0248413
2023-01-01T03:25:41.365Z,960.0836792
2023-01-01T03:26:42.326Z,960.1409302
2023-01-01T03:27:43.205Z,960.1149902
2023-01-01T03:28:44.100Z,960.1786499
2023-01-01T03:29:45.681Z,960.1313477
2023-01-01T03:30:46.668Z,960.1376343
2023-01-01T03:31:47.376Z,960.0925293
2023-01-01T03:32:49.149Z,960.0578613
2023-01-01T03:33:49.932Z,960.1331177
2023-01-01T03:34:50.733Z,960.0609131
2023-01-01T03:35:51.463Z,960.0700073
2023-01-01T03:36:52.325Z,960.1386719
2023-01-01T03:37:53.248Z,960.12146
2023-01-01T03:38:54.109Z,960.1713257
2023-01-01T03:39:55.674Z,960.194458
2023-01-01T03:40:57.173Z,960.1862793
2023-01-01T03:41:58.352Z,960.1801758
2023-01-01T03:42:59.100Z,960.1818237
2023-01-01T03:43:59.979Z,960.1747437
2023-01-01T03:45:00.802Z,960.2269287
2023-01-01T03:46:01.582Z,960.1958008
2023-01-01T03:47:02.480Z,960.2086182
2023-01-01T03:48:03.280Z,960.2421875
2023-01-01T03:49:04.635Z,960.2269287
2023-01-01T03:50:05.047Z,960.1376343
2023-01-01T03:51:36.962Z,960.2045288
2023-01-01T03:52:37.732Z,960.2059326
2023-01-01T03:53:38.664Z,960.1779785
2023-01-01T03:54:39.542Z,960.152832
2023-01-01T03:55:40.376Z,960.1995239
2023-01-01T03:56:41.142Z,960.2247925
2023-01-01T03:57:42.034Z,960.1876831
2023-01-01T03:58:42.904Z,960.1656494
2023-01-01T03:59:44.728Z,960.1248169
2023-01-01T04:00:45.582Z,960.1052246
2023-01-01T04:01:47.293Z,960.1702881
2023-01-01T04:02:48.052Z,960.2064209
2023-01-01T04:03:48.751Z,960.2015381
2023-01-01T04:04:49.626Z,960.1997681
2023-01-01T04:05:50.472Z,960.2109375
2023-01-01T04:06:51.318Z,960.2245483
2023-01-01T04:07:52.043Z,960.1978149
2023-01-01T04:08:53.620Z,960.2419434
2023-01-01T04:09:54.475Z,960.2036133
2023-01-01T04:10:56.207Z,960.1937256
2023-01-01T04:11:57.049Z,960.1862793
2023-01-01T04:12:57.776Z,960.1790771
2023-01-01T04:13:58.520Z,960.1484375
2023-01-01T04:14:59.449Z,960.1877441
2023-01-01T04:16:00.454Z,960.1415405
2023-01-01T04:17:01.172Z,960.1478271
2023-01-01T04:18:01.911Z,960.1754761
2023-01-01T04:19:02.717Z,960.1817017
2023-01-01T04:20:03.582Z,960.2337646
2023-01-01T04:21:05.219Z,960.2442017
2023-01-01T04:22:36.737Z,960.2349243
2023-01-01T04:23:37.417Z,960.2315674
2023-01-01T04:24:38.254Z,960.2867432
2023-01-01T04:25:39.142Z,960.3259277
2023-01-01T04:26:40.021Z,960.309082
2023-01-01T04:27:40.864Z,960.3186035
2023-01-01T04:28:41.579Z,960.3016968
2023-01-01T04:29:42.510Z,960.2857056
2023-01-01T04:30:44.214Z,960.3516235
2023-01-01T04:31:45.163Z,960.3330688
2023-01-01T04:32:46.932Z,960.3255615
2023-01-01T04:33:47.660Z,960.3144531
2023-01-01T04:34:48.468Z,960.3373413
2023-01-01T04:35:49.326Z,960.3192139
2023-01-01T04:36:50.316Z,960.2960815
2023-01-01T04:37:50.990Z,960.3013916
2023-01-01T04:38:51.884Z,960.2990723
2023-01-01T04:39:52.643Z,960.3032837
2023-01-01T04:40:54.187Z,960.3191528
2023-01-01T04:41:55.062Z,960.3357544
2023-01-01T04:42:55.876Z,960.2704468
2023-01-01T04:43:56.714Z,960.3417969
2023-01-01T04:44:57.628Z,960.3306274
2023-01-01T04:45:58.456Z,960.3181152
2023-01-01T04:47:00.330Z,960.3674316
2023-01-01T04:48:00.165Z,960.3261108
2023-01-01T04:49:00.991Z,960.3084106
2023-01-01T04:50:01.696Z,960.3052368
2023-01-01T04:51:03.215Z,960.2756958
2023-01-01T04:52:04.155Z,960.2966309
2023-01-01T04:53:04.977Z,960.3370972
2023-01-01T04:54:36.254Z,960.3549805
2023-01-01T04:55:36.964Z,960.3258667
2023-01-01T04:56:37.723Z,960.3387451
2023-01-01T04:57:38.684Z,960.3369751
2023-01-01T04:58:39.625Z,960.34375
2023-01-01T04:59:41.191Z,960.3615723
2023-01-01T05:00:41.980Z,960.3635254
2023-01-01T05:01:43.852Z,960.3730469
2023-01-01T05:02:44.687Z,960.3492432
2023-01-01T05:03:45.515Z,960.305603
2023-01-01T05:04:46.456Z,960.3510742
2023-01-01T05:05:51.284Z,960.4057617
2023-01-01T05:06:48.008Z,960.3599854
2023-01-01T05:07:48.956Z,960.317627
2023-01-01T05:08:49.779Z,960.3443604
2023-01-01T05:09:50.769Z,960.3278198
2023-01-01T05:10:52.073Z,960.3417969
2023-01-01T05:11:52.879Z,960.3543701
2023-01-01T05:12:54.705Z,960.3595581
2023-01-01T05:13:55.627Z,960.3744507
2023-01-01T05:14:56.584Z,960.3838501
2023-01-01T05:15:57.604Z,960.3859253
2023-01-01T05:16:58.398Z,960.4204102
2023-01-01T05:17:59.227Z,960.3900146
2023-01-01T05:19:00.149Z,960.4230957
2023-01-01T05:20:01.040Z,960.3621826
2023-01-01T05:21:02.720Z,960.3684082
2023-01-01T05:22:10.224Z,960.2937012
2023-01-01T05:23:35.879Z,960.3331909
2023-01-01T05:24:36.745Z,960.2672119
2023-01-01T05:25:37.635Z,960.3256836
2023-01-01T05:26:38.478Z,960.3093872
2023-01-01T05:27:40.169Z,960.3062744
2023-01-01T05:28:40.984Z,960.2907715
2023-01-01T05:29:41.893Z,960.281189
2023-01-01T05:30:42.795Z,960.3289185
2023-01-01T05:31:44.803Z,960.3251343
2023-01-01T05:32:45.662Z,960.3276367
2023-01-01T05:33:46.443Z,960.3373413
2023-01-01T05:34:47.367Z,960.3886108
2023-01-01T05:35:48.203Z,960.3317261
2023-01-01T05:36:49.048Z,960.336731
2023-01-01T05:37:49.814Z,960.3057861
2023-01-01T05:38:50.618Z,960.2666626
2023-01-01T05:39:51.483Z,960.2468262
2023-01-01T05:40:53.148Z,960.2647095
2023-01-01T05:41:54.063Z,960.2717285
2023-01-01T05:42:55.615Z,960.2453003
2023-01-01T05:43:56.373Z,960.3048706
2023-01-01T05:44:57.426Z,960.3425293
2023-01-01T05:45:58.314Z,960.3563843
2023-01-01T05:46:59.192Z,960.3892212
2023-01-01T05:48:00.211Z,960.3912354
2023-01-01T05:49:00.922Z,960.3613892
2023-01-01T05:51:02.664Z,960.414978
2023-01-01T05:52:04.197Z,960.4187622
2023-01-01T05:53:35.532Z,960.3908691
2023-01-01T05:54:36.288Z,960.463623
2023-01-01T05:55:37.043Z,960.414978
2023-01-01T05:56:37.947Z,960.4000244
2023-01-01T05:57:38.845Z,960.4064941
2023-01-01T05:58:39.701Z,960.4440918
2023-01-01T05:59:40.541Z,960.4526367
2023-01-01T06:00:42.098Z,960.4226074
2023-01-01T06:01:45.799Z,960.4397583
2023-01-01T06:02:44.843Z,960.4140015
2023-01-01T06:03:45.558Z,960.3843994
2023-01-01T06:04:46.408Z,960.4265747
2023-01-01T06:05:47.178Z,960.4087524
2023-01-01T06:06:48.023Z,960.3796997
2023-01-01T06:07:49.038Z,960.4057007
2023-01-01T06:08:49.815Z,960.413208
2023-01-01T06:09:50.734Z,960.3939209
2023-01-01T06:10:51.513Z,960.399353
2023-01-01T06:11:53.063Z,960.4151611
2023-01-01T06:12:54.699Z,960.4385986
2023-01-01T06:13:55.660Z,960.4296875
2023-01-01T06:14:56.634Z,960.4679565
2023-01-01T06:15:57.600Z,960.4447021
2023-01-01T06:16:58.532Z,960.4609375
2023-01-01T06:17:59.287Z,960.4963989
2023-01-01T06:19:00.209Z,960.4884644
2023-01-01T06:20:01.082Z,960.4819336
2023-01-01T06:21:01.890Z,960.4869385
2023-01-01T06:22:03.666Z,960.4760742
2023-01-01T06:23:35.173Z,960.4987793
2023-01-01T06:24:39.080Z,960.4927979
2023-01-01T06:25:36.932Z,960.5368652
2023-01-01T06:26:37.755Z,960.5067139
2023-01-01T06:27:38.587Z,960.4902954
2023-01-01T06:28:39.424Z,960.4923706
2023-01-01T06:29:40.351Z,960.4740601
2023-01-01T06:30:41.275Z,960.4277344
2023-01-01T06:31:42.667Z,960.4373169
2023-01-01T06:32:43.541Z,960.4356079
2023-01-01T06:33:44.481Z,960.4734497
2023-01-01T06:34:45.307Z,960.4732666
2023-01-01T06:35:46.243Z,960.4506226
2023-01-01T06:36:47.195Z,960.4699707
2023-01-01T06:37:48.102Z,960.4484253
2023-01-01T06:38:48.951Z,960.4185791
2023-01-01T06:39:49.738Z,960.4748535
2023-01-01T06:40:50.616Z,960.4539185
2023-01-01T06:41:52.141Z,960.4845581
2023-01-01T06:42:52.925Z,960.5411987
2023-01-01T06:43:53.668Z,960.4978027
2023-01-01T06:44:54.430Z,960.5541992
2023-01-01T06:45:55.353Z,960.538147
2023-01-01T06:46:56.241Z,960.508606
2023-01-01T06:47:58.772Z,960.4866943
2023-01-01T06:48:58.153Z,960.4763794
2023-01-01T06:49:58.864Z,960.5083618
2023-01-01T06:50:59.870Z,960.5004883
2023-01-01T06:52:01.710Z,960.5048218
2023-01-01T06:53:02.587Z,960.5222778
2023-01-01T06:54:04.035Z,960.5591431
2023-01-01T06:55:35.232Z,960.5248413
2023-01-01T06:56:36.146Z,960.5618896
2023-01-01T06:57:37.095Z,960.5568848
2023-01-01T06:58:37.980Z,960.5795898
2023-01-01T06:59:38.815Z,960.5875244
2023-01-01T07:00:39.559Z,960.5499878
2023-01-01T07:01:41.174Z,960.5692139
2023-01-01T07:02:42.848Z,960.5172119
2023-01-01T07:03:43.535Z,960.5998535
2023-01-01T07:04:44.253Z,960.5808716
2023-01-01T07:05:45.028Z,960.5595093
2023-01-01T07:06:45.831Z,960.5456543
2023-01-01T07:07:46.694Z,960.5541992
2023-01-01T07:08:47.568Z,960.5635376
2023-01-01T07:09:48.483Z,960.5726318
2023-01-01T07:10:50.156Z,960.5635376
2023-01-01T07:11:51.678Z,960.522522
2023-01-01T07:12:52.472Z,960.5376587
2023-01-01T07:13:53.220Z,960.5471802
2023-01-01T07:14:54.056Z,960.5031128
2023-01-01T07:15:54.910Z,960.5628052
2023-01-01T07:16:55.653Z,960.5251465
2023-01-01T07:17:56.549Z,960.524231
2023-01-01T07:18:57.817Z,960.5349731
2023-01-01T07:19:58.617Z,960.5276489
2023-01-01T07:20:59.440Z,960.5679932
2023-01-01T07:22:01.149Z,960.585022
2023-01-01T07:23:01.900Z,960.6209106
2023-01-01T07:24:02.689Z,960.685791
2023-01-01T07:25:34.415Z,960.6852417
2023-01-01T07:26:35.087Z,960.6995239
2023-01-01T07:27:35.916Z,960.6900024
2023-01-01T07:28:36.858Z,960.6784668
2023-01-01T07:29:37.702Z,960.6584473
2023-01-01T07:30:39.227Z,960.7195435
2023-01-01T07:31:40.113Z,960.7270508
2023-01-01T07:32:41.596Z,960.7383423
2023-01-01T07:33:42.324Z,960.7876587
2023-01-01T07:34:48.847Z,960.7804565
2023-01-01T07:35:43.911Z,960.7666626
2023-01-01T07:36:44.732Z,960.7876587
2023-01-01T07:37:45.457Z,960.791748
2023-01-01T07:38:46.276Z,960.7723389
2023-01-01T07:39:47.093Z,960.7980957
2023-01-01T07:40:48.032Z,960.8456421
2023-01-01T07:41:48.908Z,960.8757935
2023-01-01T07:42:50.579Z,960.9128418
2023-01-01T07:43:51.367Z,960.8517456
2023-01-01T07:44:52.276Z,960.8685303
2023-01-01T07:45:53.157Z,960.8632813
2023-01-01T07:46:53.829Z,960.881958
2023-01-01T07:47:54.602Z,960.9076538
2023-01-01T07:48:55.404Z,960.9151611
2023-01-01T07:49:56.190Z,960.9274902
2023-01-01T07:50:57.084Z,960.9051514
2023-01-01T07:51:58.202Z,960.9827271
2023-01-01T07:52:59.577Z,960.9463501
2023-01-01T07:54:06.232Z,960.9625244
2023-01-01T07:55:01.210Z,960.9154663
2023-01-01T07:56:02.111Z,960.9749146
2023-01-01T07:57:03.325Z,961.0808105
2023-01-01T07:58:34.544Z,961.0626831
2023-01-01T07:59:35.329Z,961.1242676
2023-01-01T08:00:36.086Z,961.1158447
2023-01-01T08:01:37.862Z,961.0792847
2023-01-01T08:02:39.299Z,961.0561523
2023-01-01T08:03:40.099Z,961.0651855
2023-01-01T08:04:40.897Z,961.0845947
2023-01-01T08:05:41.686Z,961.0539551
2023-01-01T08:06:42.604Z,961.0019531
2023-01-01T08:07:43.398Z,960.9815674
2023-01-01T08:08:44.383Z,960.9763184
2023-01-01T08:09:45.213Z,960.9785767
2023-01-01T08:10:45.987Z,960.9818115
2023-01-01T08:11:46.851Z,960.9804077
2023-01-01T08:12:48.743Z,960.9609985
2023-01-01T08:13:49.660Z,960.9416504
2023-01-01T08:14:50.524Z,960.9637451
2023-01-01T08:15:51.435Z,960.9838867
2023-01-01T08:16:52.340Z,960.9226685
2023-01-01T08:17:53.207Z,960.9360962
2023-01-01T08:18:53.898Z,960.9134521
2023-01-01T08:19:54.730Z,960.8909302
2023-01-01T08:20:55.537Z,960.8884277
2023-01-01T08:21:56.351Z,960.8845825
2023-01-01T08:23:04.561Z,960.883606
2023-01-01T08:23:59.138Z,960.8432617
2023-01-01T08:25:00.023Z,960.8771362
2023-01-01T08:26:00.854Z,960.881958
2023-01-01T08:27:01.740Z,960.8964233
2023-01-01T08:28:03.065Z,960.8551636
2023-01-01T08:29:34.337Z,960.8838501
2023-01-01T08:30:35.369Z,960.8811646
2023-01-01T08:31:37.169Z,960.9001465
2023-01-01T08:32:38.671Z,960.8904419
2023-01-01T08:33:39.561Z,960.8591919
2023-01-01T08:34:40.419Z,960.8406372
2023-01-01T08:35:41.342Z,960.869873
2023-01-01T08:36:42.137Z,960.8735962
2023-01-01T08:37:42.981Z,960.8823242
2023-01-01T08:38:43.885Z,960.8470459
2023-01-01T08:39:44.801Z,960.8131104
2023-01-01T08:40:45.689Z,960.8217163
2023-01-01T08:41:46.555Z,960.8729858
2023-01-01T08:42:48.172Z,960.881897
2023-01-01T08:43:49.089Z,960.8781128
2023-01-01T08:44:50.028Z,960.8928223
2023-01-01T08:45:50.935Z,960.8879395
2023-01-01T08:46:52.052Z,960.9515381
2023-01-01T08:47:52.785Z,960.9435425
2023-01-01T08:48:53.647Z,960.8867188
2023-01-01T08:49:54.521Z,960.8206177
2023-01-01T08:50:55.395Z,960.9095459
2023-01-01T08:51:56.420Z,960.8951416
2023-01-01T08:52:58.674Z,960.894165
2023-01-01T08:53:59.468Z,960.9077148
2023-01-01T08:55:00.386Z,960.9057617
2023-01-01T08:56:01.257Z,960.9004517
2023-01-01T08:57:02.144Z,960.9464722
2023-01-01T08:58:33.390Z,961.015625
2023-01-01T08:59:34.192Z,960.9787598
2023-01-01T09:00:35.025Z,960.9785156
2023-01-01T09:01:36.875Z,960.9667969
2023-01-01T09:02:38.955Z,960.9654541
2023-01-01T09:03:39.641Z,960.9484253
2023-01-01T09:04:40.398Z,960.9624023
2023-01-01T09:05:41.197Z,961.0048218
2023-01-01T09:06:42.114Z,960.9804688
2023-01-01T09:07:43.042Z,960.9520264
2023-01-01T09:08:43.873Z,960.9728394
2023-01-01T09:09:44.805Z,961.0103149
2023-01-01T09:10:45.592Z,960.9921875
2023-01-01T09:11:46.572Z,961.0532227
2023-01-01T09:12:48.163Z,961.126709
2023-01-01T09:13:49.620Z,961.065918
2023-01-01T09:14:50.516Z,961.0828857
2023-01-01T09:15:51.310Z,961.0665894
2023-01-01T09:16:52.176Z,961.0854492
2023-01-01T09:17:52.996Z,961.0979614
2023-01-01T09:18:53.882Z,961.0854492
2023-01-01T09:19:54.663Z,961.055481
2023-01-01T09:20:55.425Z,961.0501709
2023-01-01T09:21:57.407Z,961.0181885
2023-01-01T09:23:04.025Z,961.0237427
2023-01-01T09:24:00.149Z,961.0222778
2023-01-01T09:25:01.039Z,960.9659424
2023-01-01T09:26:02.202Z,960.9989014
2023-01-01T09:27:33.452Z,960.9589233
2023-01-01T09:28:34.361Z,961.0010376
2023-01-01T09:29:35.238Z,961.045105
2023-01-01T09:30:36.042Z,961.0629883
2023-01-01T09:31:36.921Z,961.1063232
2023-01-01T09:32:37.650Z,961.0663452
2023-01-01T09:33:39.219Z,961.0804443
2023-01-01T09:34:40.197Z,961.0963135
2023-01-01T09:35:41.028Z,961.1212769
2023-01-01T09:36:41.750Z,961.1166992
2023-01-01T09:37:42.552Z,961.1049805
2023-01-01T09:38:43.423Z,961.107666
2023-01-01T09:39:44.399Z,961.1201782
2023-01-01T09:40:50.796Z,961.0734863
2023-01-01T09:41:46.874Z,961.1193237
2023-01-01T09:42:48.185Z,961.0830688
2023-01-01T09:43:49.199Z,961.1018066
2023-01-01T09:44:51.266Z,961.0655518
2023-01-01T09:45:52.288Z,961.0836792
2023-01-01T09:46:52.969Z,961.1520386
2023-01-01T09:47:53.796Z,961.1282959
2023-01-01T09:48:54.719Z,961.0929565
2023-01-01T09:49:55.734Z,961.100708
2023-01-01T09:50:56.719Z,961.0744019
2023-01-01T09:51:58.237Z,961.1010742
2023-01-01T09:52:59.224Z,961.0432129
2023-01-01T09:54:00.115Z,961.0303345
2023-01-01T09:55:00.992Z,961.0161133
2023-01-01T09:56:32.719Z,961.0130615
2023-01-01T09:57:33.477Z,961.0115356
2023-01-01T09:58:34.510Z,960.9909668
2023-01-01T09:59:35.374Z,961.0342407
2023-01-01T10:00:36.311Z,961.0128174
2023-01-01T10:01:37.343Z,961.0314331
2023-01-01T10:02:38.577Z,961.0684204
2023-01-01T10:03:40.129Z,961.0239258
2023-01-01T10:04:40.972Z,960.9840698
2023-01-01T10:05:41.812Z,960.9681396
2023-01-01T10:06:42.867Z,961.0009155
2023-01-01T10:07:43.529Z,961.0204468
2023-01-01T10:08:44.355Z,960.9790649
2023-01-01T10:09:45.073Z,960.961853
2023-01-01T10:10:45.957Z,960.9984131
2023-01-01T10:11:46.871Z,960.9470215
2023-01-01T10:12:47.777Z,960.9290771
2023-01-01T10:13:49.092Z,960.8943481
2023-01-01T10:14:49.911Z,960.907959
2023-01-01T10:15:50.856Z,960.8964844
2023-01-01T10:16:51.860Z,960.883728
2023-01-01T10:17:52.559Z,960.8317871
2023-01-01T10:18:53.289Z,960.8099976
2023-01-01T10:19:54.099Z,960.7806396
2023-01-01T10:20:55.109Z,960.7561035
2023-01-01T10:21:56.077Z,960.732666
2023-01-01T10:22:56.838Z,960.7039185
2023-01-01T10:23:58.607Z,960.684082
2023-01-01T10:24:59.428Z,960.6671143
2023-01-01T10:26:00.212Z,960.6981201
2023-01-01T10:27:01.700Z,960.6629639
2023-01-01T10:28:32.927Z,960.6422119
2023-01-01T10:29:33.672Z,960.6721191
2023-01-01T10:30:34.458Z,960.6862793
2023-01-01T10:31:36.260Z,960.6325073
2023-01-01T10:32:37.132Z,960.6165771
2023-01-01T10:33:38.752Z,960.5601807
2023-01-01T10:34:39.711Z,960.5720215
2023-01-01T10:35:40.676Z,960.5568237
2023-01-01T10:36:41.550Z,960.4971313
2023-01-01T10:37:42.463Z,960.4957886
2023-01-01T10:38:43.396Z,960.4924316
2023-01-01T10:39:44.236Z,960.52771
2023-01-01T10:40:45.003Z,960.4296875
2023-01-01T10:41:45.807Z,960.4196777
2023-01-01T10:42:46.703Z,960.4512329
2023-01-01T10:43:48.129Z,960.4294434
2023-01-01T10:44:48.918Z,960.4428101
2023-01-01T10:45:49.762Z,960.4076538
2023-01-01T10:46:50.480Z,960.3981323
2023-01-01T10:47:52.361Z,960.401123
2023-01-01T10:48:53.229Z,960.4071655
2023-01-01T10:49:54.160Z,960.312561
2023-01-01T10:50:54.915Z,960.2854614
2023-01-01T10:51:56.643Z,960.3098145
2023-01-01T10:52:57.658Z,960.3704834
2023-01-01T10:53:59.223Z,960.2932739
2023-01-01T10:55:00.073Z,960.2828369
2023-01-01T10:56:01.211Z,960.2790527
2023-01-01T10:57:32.349Z,960.2714233
2023-01-01T10:58:34.115Z,960.2644043
2023-01-01T10:59:34.955Z,960.27948
2023-01-01T11:00:35.728Z,960.2270508
2023-01-01T11:01:36.647Z,960.1828003
2023-01-01T11:02:37.458Z,960.1636963
2023-01-01T11:03:38.707Z,960.1453247
2023-01-01T11:04:39.528Z,960.0928345
2023-01-01T11:05:40.391Z,960.109375
2023-01-01T11:06:41.129Z,960.102356
2023-01-01T11:07:41.951Z,960.1026611
2023-01-01T11:08:43.719Z,960.1096802
2023-01-01T11:10:01.668Z,960.086853
2023-01-01T11:10:45.410Z,960.0749512
2023-01-01T11:11:46.113Z,960.0984497
2023-01-01T11:13:04.665Z,960.0999146
2023-01-01T11:13:49.437Z,960.0651855